KACY/ACY METAR and TAF weather

Enter ICAO airport designator
Station Type Date Time Source
KACY METAR 2021/01/27 13:54 UTC NOAA

KACY 271354Z 31012G21KT 10SM BKN048 04/01 A3002 RMK AO2 SLP164 T00440011


Station Type Date Time Source
KACY Decoded METAR 2021/01/27 13:54 UTC NOAA

ATLANTIC CITY INTERNATIONAL, NJ, United States (KACY) 39-28N 74-35W 35M
Jan 27, 2021 - 08:54 AM EST / 2021.01.27 1354 UTC
Wind: from the NW (310 degrees) at 14 MPH (12 KT) gusting to 24 MPH (21 KT):0
Visibility: 10 mile(s):0
Sky conditions: mostly cloudy
Temperature: 39.9 F (4.4 C)
Dew Point: 34.0 F (1.1 C)
Relative Humidity: 79%
Pressure (altimeter): 30.02 in. Hg (1016 hPa)
ob: KACY 271354Z 31012G21KT 10SM BKN048 04/01 A3002 RMK AO2 SLP164 T00440011
cycle: 14

Station Type Date Time Source
KACY TAF 2021/01/27 12:27 UTC NOAA

TAF KACY 271124Z 2712/2812 30010KT P6SM BKN050
FM271400 31012G20KT P6SM SCT050
FM272200 33008KT P6SM SCT050
FM281000 33012G20KT P6SM BKN080

Example: see airport list